createdAt,value
2019-02-14T06:14:12.004Z,12.35
2019-02-14T06:19:16.495Z,12.00
2019-02-14T06:24:20.735Z,12.00
2019-02-14T06:29:25.157Z,12.68
2019-02-14T06:34:29.842Z,11.48
2019-02-14T06:39:33.935Z,12.57
2019-02-14T06:44:37.986Z,10.13
2019-02-14T06:49:42.163Z,12.07
2019-02-14T06:54:46.709Z,12.20
2019-02-14T06:59:50.941Z,11.05
2019-02-14T07:04:55.466Z,12.13
2019-02-14T07:10:00.727Z,10.80
2019-02-14T07:15:05.339Z,11.70
2019-02-14T07:20:11.578Z,14.63
2019-02-14T07:25:16.147Z,18.23
2019-02-14T07:30:21.031Z,15.30
2019-02-14T07:35:25.233Z,18.30
2019-02-14T07:40:29.830Z,12.20
2019-02-14T07:45:34.290Z,11.03
2019-02-14T07:50:38.352Z,10.53
2019-02-14T07:55:42.850Z,22.62
2019-02-14T08:00:47.124Z,12.18
2019-02-14T08:05:51.613Z,10.40
2019-02-14T08:10:55.828Z,11.60
2019-02-14T08:16:00.061Z,11.08
2019-02-14T08:21:04.413Z,9.90
2019-02-14T08:26:10.748Z,10.27
2019-02-14T08:31:14.450Z,11.25
2019-02-14T08:36:18.722Z,9.60
2019-02-14T08:41:23.852Z,10.53
2019-02-14T08:46:28.114Z,10.20
2019-02-14T08:51:32.684Z,9.88
2019-02-14T08:56:37.315Z,9.15
2019-02-14T09:01:43.819Z,8.60
2019-02-14T09:06:47.959Z,9.10
2019-02-14T09:11:52.650Z,8.30
2019-02-14T09:16:56.778Z,7.50
2019-02-14T09:22:00.999Z,8.90
2019-02-14T09:27:05.184Z,9.70
2019-02-14T09:32:09.442Z,8.53
2019-02-14T09:37:14.104Z,8.23
2019-02-14T09:42:18.416Z,8.20
2019-02-14T09:47:24.027Z,8.10
2019-02-14T09:52:29.025Z,8.25
2019-02-14T09:57:37.387Z,9.30
2019-02-14T10:02:42.006Z,9.20
2019-02-14T10:07:46.350Z,9.73
2019-02-14T10:12:50.839Z,9.80
2019-02-14T10:17:55.025Z,9.80
2019-02-14T10:23:00.392Z,8.70
2019-02-14T10:28:04.612Z,8.00
2019-02-14T10:33:08.793Z,8.13
2019-02-14T10:38:21.735Z,7.95
2019-02-14T10:43:19.346Z,8.47
2019-02-14T10:48:35.161Z,9.33
2019-02-14T10:53:53.838Z,11.60
2019-02-14T10:58:59.071Z,8.50
2019-02-14T11:04:03.845Z,9.23
2019-02-14T11:09:08.081Z,8.55
2019-02-14T11:14:12.551Z,9.50
2019-02-14T11:19:16.764Z,8.97
2019-02-14T11:24:20.990Z,9.85
2019-02-14T11:35:04.295Z,10.10
2019-02-14T11:40:10.952Z,9.88
2019-02-14T11:45:16.334Z,9.33
2019-02-14T11:50:20.755Z,8.85
2019-02-14T11:55:25.108Z,9.30
2019-02-14T12:00:55.643Z,8.50
2019-02-14T12:06:00.755Z,8.55
2019-02-14T12:11:15.008Z,8.80
2019-02-14T12:21:56.193Z,8.45
2019-02-14T18:39:27.768Z,8.70
2019-02-14T18:44:43.654Z,8.38
2019-02-14T18:56:58.213Z,17.67
2019-02-14T19:03:13.739Z,17.70
2019-02-14T19:08:55.658Z,16.12
2019-02-14T19:45:54.791Z,15.58
2019-02-14T19:51:05.688Z,12.50
2019-02-14T19:56:46.063Z,9.75
2019-02-14T20:08:28.500Z,12.13
2019-02-14T20:13:49.559Z,13.90
2019-02-14T20:19:33.583Z,19.57
2019-02-14T20:30:25.010Z,15.98
2019-02-14T20:35:31.895Z,14.33
2019-02-14T20:41:21.027Z,16.30
2019-02-14T20:46:53.259Z,15.15
2019-02-14T20:52:36.594Z,13.60
2019-02-14T20:58:23.849Z,11.53
2019-02-14T21:10:06.681Z,10.30
2019-02-14T21:15:47.009Z,9.98
2019-02-14T21:27:51.121Z,9.90
2019-02-14T21:33:46.637Z,11.38
2019-02-14T21:39:25.657Z,10.90
2019-02-14T21:44:41.770Z,12.50
2019-02-14T21:50:16.508Z,16.42
2019-02-14T21:55:35.900Z,11.28
2019-02-14T22:02:13.352Z,11.30
2019-02-14T22:12:40.719Z,9.65
2019-02-14T22:25:49.156Z,11.48
2019-02-14T22:30:22.366Z,9.50
2019-02-14T22:35:46.923Z,9.10
2019-02-14T22:41:00.516Z,10.17
2019-02-14T22:46:46.116Z,10.32
2019-02-14T22:52:06.333Z,9.70
2019-02-14T22:57:22.374Z,8.38
2019-02-14T23:02:55.947Z,8.67
2019-02-14T23:08:11.510Z,9.40
2019-02-14T23:13:16.618Z,9.10
2019-02-14T23:18:34.978Z,8.17
2019-02-14T23:23:39.821Z,9.23
2019-02-14T23:28:54.962Z,8.45
2019-02-14T23:34:14.703Z,8.73
2019-02-14T23:39:21.577Z,8.43
2019-02-14T23:44:26.510Z,9.15
2019-02-14T23:49:31.587Z,10.10
2019-02-14T23:54:39.375Z,10.63
2019-02-14T23:59:43.090Z,10.53
